McKinney's Hourly Summary for Saturday, May 12, 2018
Hour Temp
(f)
RH
(%)
Solar Rad.
(MJ/m2)
Rainfall
(in)
Wind
(mph)
5/12/2018 12:00 AM 75 60 0 0 6.75
5/12/2018 1:00 AM 74 64 0 0 7.57
5/12/2018 2:00 AM 73 71 0 0 9.45
5/12/2018 3:00 AM 73 72 0 0 10.48
5/12/2018 4:00 AM 72 75 0 0 9.92
5/12/2018 5:00 AM 72 78 0 0 11.61
5/12/2018 6:00 AM 72 79 0 0 8.23
5/12/2018 7:00 AM 71 82 0.02 0 6.88
5/12/2018 8:00 AM 72 82 0.33 0 6.41
5/12/2018 9:00 AM 73 77 0.44 0 6.74
5/12/2018 10:00 AM 76 71 1.11 0 9.34
5/12/2018 11:00 AM 78 62 2.16 0 11.22
5/12/2018 12:00 PM 80 57 2.25 0 10.61
5/12/2018 1:00 PM 82 52 2.51 0 9.74
5/12/2018 2:00 PM 84 48 2.76 0 10.29
5/12/2018 3:00 PM 85 48 2.34 0 10.6
5/12/2018 4:00 PM 85 46 2.16 0 11.31
5/12/2018 5:00 PM 86 46 1.89 0 11.01
5/12/2018 6:00 PM 85 45 1.18 0 10.51
5/12/2018 7:00 PM 85 47 0.77 0 9.15
5/12/2018 8:00 PM 83 49 0.23 0 7.32
5/12/2018 9:00 PM 79 57 0.01 0 5.19
5/12/2018 10:00 PM 77 63 0 0 4.43
5/12/2018 11:00 PM 75 68 0 0 3.5
Data Summary 77 62 20.16 0.00 8.68